createdAt,value
2019-01-28T00:00:03.443Z,2.9
2019-01-28T00:01:03.069Z,2.9
2019-01-28T00:02:03.065Z,2.9
2019-01-28T00:03:02.951Z,2.9
2019-01-28T00:04:02.229Z,2.9
2019-01-28T00:05:02.246Z,2.9
2019-01-28T00:06:01.753Z,2.9
2019-01-28T00:07:03.529Z,2.9
2019-01-28T00:08:03.055Z,2.9
2019-01-28T00:09:03.321Z,2.9
2019-01-28T00:10:03.587Z,2.9
2019-01-28T00:11:03.600Z,2.9
2019-01-28T00:12:02.883Z,2.9
2019-01-28T00:13:03.409Z,2.9
2019-01-28T00:14:03.018Z,2.9
2019-01-28T00:15:02.839Z,2.9
2019-01-28T00:16:02.888Z,3
2019-01-28T00:17:02.592Z,3
2019-01-28T00:18:03.803Z,2.9
2019-01-28T00:19:03.448Z,2.9
2019-01-28T00:20:02.773Z,2.9
2019-01-28T00:21:03.033Z,2.9
2019-01-28T00:22:03.087Z,2.9
2019-01-28T00:23:02.642Z,2.9
2019-01-28T00:24:03.567Z,2.9
2019-01-28T00:25:03.126Z,2.9
2019-01-28T00:26:03.280Z,2.9
2019-01-28T00:27:02.143Z,2.9
2019-01-28T00:28:02.683Z,2.9
2019-01-28T00:29:02.656Z,2.9
2019-01-28T00:30:02.949Z,2.9
2019-01-28T00:31:03.078Z,2.9
2019-01-28T00:32:03.256Z,2.9
2019-01-28T00:33:03.081Z,2.9
2019-01-28T00:34:03.300Z,3
2019-01-28T00:35:02.686Z,2.9
2019-01-28T00:36:03.002Z,2.9
2019-01-28T00:37:02.782Z,2.9
2019-01-28T00:38:02.977Z,2.9
2019-01-28T00:39:03.227Z,2.9
2019-01-28T00:40:02.914Z,2.9
2019-01-28T00:41:02.939Z,2.9
2019-01-28T00:42:02.889Z,2.9
2019-01-28T00:43:02.895Z,2.9
2019-01-28T00:44:03.439Z,0
2019-01-28T00:45:03.727Z,0
2019-01-28T00:46:03.125Z,0
2019-01-28T00:47:02.747Z,2.9
2019-01-28T00:48:02.875Z,2.9
2019-01-28T00:49:03.594Z,2.9
2019-01-28T00:50:03.320Z,2.9
2019-01-28T00:51:03.403Z,3
2019-01-28T00:52:03.060Z,2.9
2019-01-28T00:53:02.709Z,2.9
2019-01-28T00:54:03.433Z,2.9
2019-01-28T00:55:03.338Z,2.9
2019-01-28T00:56:02.847Z,2.9
2019-01-28T00:57:01.901Z,2.9
2019-01-28T00:58:03.406Z,2.9
2019-01-28T00:59:03.620Z,2.8
2019-01-28T01:00:03.231Z,2.8
2019-01-28T01:01:02.928Z,2.8
2019-01-28T01:02:03.031Z,2.9
2019-01-28T01:03:03.696Z,2.8
2019-01-28T01:04:03.047Z,2.8
2019-01-28T01:05:03.551Z,2.8
2019-01-28T01:06:02.965Z,2.8
2019-01-28T01:07:03.540Z,2.7
2019-01-28T01:08:02.777Z,2.7
2019-01-28T01:09:03.321Z,2.7
2019-01-28T01:10:02.616Z,2.6
2019-01-28T01:11:03.087Z,2.6
2019-01-28T01:12:03.900Z,2.6
2019-01-28T01:13:03.141Z,2.6
2019-01-28T01:14:03.651Z,2.5
2019-01-28T01:15:02.975Z,2.5
2019-01-28T01:16:03.496Z,2.4
2019-01-28T01:17:02.779Z,2.4
2019-01-28T01:18:03.065Z,2.4
2019-01-28T01:19:03.358Z,2.4
2019-01-28T01:20:02.898Z,2.3
2019-01-28T01:21:02.951Z,2.3
2019-01-28T01:22:02.812Z,2.3
2019-01-28T01:23:03.524Z,2.3
2019-01-28T01:24:03.695Z,2.3
2019-01-28T01:25:03.470Z,2.2
2019-01-28T01:26:03.425Z,2.1
2019-01-28T01:27:03.532Z,2.1
2019-01-28T01:28:03.541Z,2.1
2019-01-28T01:29:02.932Z,2.1
2019-01-28T01:30:03.595Z,2.1
2019-01-28T01:31:02.657Z,2
2019-01-28T01:32:02.874Z,1.9
2019-01-28T01:33:02.588Z,1.9
2019-01-28T01:34:03.003Z,1.9
2019-01-28T01:35:02.426Z,1.9
2019-01-28T01:36:03.285Z,1.9
2019-01-28T01:37:02.844Z,1.8
2019-01-28T01:38:03.248Z,1.8
2019-01-28T01:39:03.613Z,1.8
2019-01-28T01:40:03.437Z,1.8
2019-01-28T01:41:02.975Z,1.7
2019-01-28T01:42:03.194Z,1.6
2019-01-28T01:43:03.568Z,1.6
2019-01-28T01:44:03.158Z,1.6
2019-01-28T01:45:03.655Z,1.6
2019-01-28T01:46:02.929Z,1.5
2019-01-28T01:47:03.389Z,1.5
2019-01-28T01:48:02.952Z,1.4
2019-01-28T01:49:02.730Z,1.4
2019-01-28T01:50:02.804Z,1.4
2019-01-28T01:51:03.238Z,1.5
2019-01-28T01:52:02.963Z,1.4
2019-01-28T01:53:03.490Z,1.4
2019-01-28T01:54:03.570Z,1.4
2019-01-28T01:55:03.210Z,1.4
2019-01-28T01:56:03.694Z,1.4
2019-01-28T01:57:03.367Z,1.4
2019-01-28T01:58:03.526Z,1.4
2019-01-28T01:59:03.354Z,1.3
2019-01-28T02:00:03.235Z,1.3
2019-01-28T02:01:03.126Z,1.3
2019-01-28T02:02:03.433Z,1.3
2019-01-28T02:03:02.451Z,1.3
2019-01-28T02:04:03.142Z,1.3
2019-01-28T02:05:02.754Z,1.3
2019-01-28T02:06:03.405Z,1.2
2019-01-28T02:07:02.831Z,1.2
2019-01-28T02:08:03.103Z,1.2
2019-01-28T02:09:03.419Z,1.2
2019-01-28T02:10:03.251Z,1.2
2019-01-28T02:11:03.505Z,1.1
2019-01-28T02:12:02.965Z,1.1
2019-01-28T02:13:03.986Z,1.1
2019-01-28T02:14:02.847Z,1.1
2019-01-28T02:15:03.578Z,1.1
2019-01-28T02:16:02.910Z,1.1
2019-01-28T02:17:03.532Z,1.1
2019-01-28T02:18:02.668Z,1.1
2019-01-28T02:19:03.100Z,1.1
2019-01-28T02:20:03.747Z,1
2019-01-28T02:21:02.944Z,1
2019-01-28T02:22:02.713Z,1
2019-01-28T02:23:02.904Z,1
2019-01-28T02:24:03.035Z,1
2019-01-28T02:25:03.195Z,1
2019-01-28T02:26:03.515Z,1
2019-01-28T02:27:02.944Z,1
2019-01-28T02:28:03.676Z,1
2019-01-28T02:29:02.700Z,0.9
2019-01-28T02:30:04.022Z,0.9
2019-01-28T02:31:02.812Z,1
2019-01-28T02:32:03.475Z,1
2019-01-28T02:33:03.017Z,0.9
2019-01-28T02:34:03.224Z,0.9
2019-01-28T02:35:03.156Z,0.9
2019-01-28T02:36:03.753Z,0.9
2019-01-28T02:37:02.972Z,0.9
2019-01-28T02:38:03.359Z,0.9
2019-01-28T02:39:03.007Z,0.9
2019-01-28T02:40:03.220Z,0.9
2019-01-28T02:41:02.853Z,0.9
2019-01-28T02:42:03.106Z,0.9
2019-01-28T02:43:02.764Z,0.9
2019-01-28T02:44:03.514Z,0.9
2019-01-28T02:45:03.022Z,0.9
2019-01-28T02:46:03.249Z,0.9
2019-01-28T02:47:03.389Z,0.9
2019-01-28T02:48:03.194Z,0.9
2019-01-28T02:49:03.807Z,0.9
2019-01-28T02:50:03.194Z,0.9
2019-01-28T02:51:03.469Z,0.9
2019-01-28T02:52:02.980Z,0.9
2019-01-28T02:53:03.439Z,0.9
2019-01-28T02:54:02.962Z,0.8
2019-01-28T02:55:03.428Z,0.8
2019-01-28T02:56:02.955Z,0.8
2019-01-28T02:57:03.480Z,0.8
2019-01-28T02:58:03.348Z,0.8
2019-01-28T02:59:02.846Z,0.9
2019-01-28T03:00:02.906Z,0.9
2019-01-28T03:01:03.328Z,0.9
2019-01-28T03:02:02.970Z,0.9
2019-01-28T03:03:03.032Z,0.9
2019-01-28T03:04:03.406Z,0.9
2019-01-28T03:05:02.965Z,0.8
2019-01-28T03:06:02.655Z,0.8
2019-01-28T03:07:02.876Z,0.9
2019-01-28T03:08:02.927Z,0.8
2019-01-28T03:09:02.779Z,0.9
2019-01-28T03:10:03.503Z,0.9
2019-01-28T03:11:03.025Z,0.9
2019-01-28T03:12:02.724Z,0.9
2019-01-28T03:13:03.214Z,0.9
2019-01-28T03:14:03.085Z,0.9
2019-01-28T03:15:03.407Z,0.8
2019-01-28T03:16:03.083Z,0.9
2019-01-28T03:17:03.408Z,0.9
2019-01-28T03:18:03.152Z,0.9
2019-01-28T03:19:02.833Z,0.9
2019-01-28T03:20:03.266Z,0.9
2019-01-28T03:21:02.704Z,0.9
2019-01-28T03:22:03.240Z,0.9
2019-01-28T03:23:03.660Z,0.9
2019-01-28T03:24:03.148Z,0.9
2019-01-28T03:25:03.375Z,0.9
2019-01-28T03:26:02.568Z,0.9
2019-01-28T03:27:02.992Z,0.9
2019-01-28T03:28:02.801Z,1
2019-01-28T03:29:03.624Z,1
2019-01-28T03:30:03.360Z,1
2019-01-28T03:31:02.864Z,1
2019-01-28T03:32:03.255Z,1
2019-01-28T03:33:03.142Z,1
2019-01-28T03:34:03.541Z,1
2019-01-28T03:35:02.951Z,0.9
2019-01-28T03:36:03.332Z,1
2019-01-28T03:37:03.563Z,1
2019-01-28T03:38:02.726Z,1
2019-01-28T03:39:03.159Z,0.9
2019-01-28T03:40:03.170Z,0.9
2019-01-28T03:41:02.798Z,0.9
2019-01-28T03:42:03.561Z,0.9
2019-01-28T03:43:03.242Z,0.9
2019-01-28T03:44:03.447Z,0.9
2019-01-28T03:45:03.340Z,0.9
2019-01-28T03:46:03.336Z,0.9
2019-01-28T03:47:03.469Z,0.9
2019-01-28T03:48:02.960Z,0.9
2019-01-28T03:49:03.641Z,0.9
2019-01-28T03:50:03.179Z,0.9
2019-01-28T03:51:03.432Z,0.9
2019-01-28T03:52:02.994Z,0.9
2019-01-28T03:53:03.351Z,0.8
2019-01-28T03:54:03.329Z,0.8
2019-01-28T03:55:02.947Z,0.8
2019-01-28T03:56:03.337Z,0.8
2019-01-28T03:57:03.476Z,0.8
2019-01-28T03:58:03.199Z,0.9
2019-01-28T03:59:03.396Z,0.9
2019-01-28T04:00:02.590Z,0.9
2019-01-28T04:01:03.198Z,0.9
2019-01-28T04:02:03.329Z,0.8
2019-01-28T04:03:03.071Z,0.8
2019-01-28T04:04:03.382Z,0.9
2019-01-28T04:05:03.367Z,0.9
2019-01-28T04:06:02.765Z,0.9
2019-01-28T04:07:02.695Z,0.9
2019-01-28T04:08:03.729Z,0.9
2019-01-28T04:09:02.444Z,0.8
2019-01-28T04:10:02.990Z,0.8
2019-01-28T04:11:02.968Z,0.8
2019-01-28T04:12:02.888Z,0.8
2019-01-28T04:13:02.533Z,0.8
2019-01-28T04:14:03.449Z,0.8
2019-01-28T04:15:03.184Z,0.8
2019-01-28T04:16:02.656Z,0.8
2019-01-28T04:17:02.822Z,0.8
2019-01-28T04:18:03.616Z,0.8
2019-01-28T04:19:03.339Z,0.8
2019-01-28T04:20:02.758Z,0.9
2019-01-28T04:21:02.864Z,0.9
2019-01-28T04:22:03.134Z,0.9
2019-01-28T04:23:03.445Z,0.9
2019-01-28T04:24:03.259Z,0.9
2019-01-28T04:25:03.683Z,0.9
2019-01-28T04:26:03.487Z,0.9
2019-01-28T04:27:02.764Z,0.9
2019-01-28T04:28:03.167Z,0.9
2019-01-28T04:29:02.849Z,0.9
2019-01-28T04:30:02.694Z,0.9
2019-01-28T04:31:02.790Z,0.9
2019-01-28T04:32:02.764Z,0.9
2019-01-28T04:33:03.223Z,0.9
2019-01-28T04:34:03.436Z,0.9
2019-01-28T04:35:03.257Z,0.9
2019-01-28T04:36:03.325Z,0.9
2019-01-28T04:37:02.981Z,0.9
2019-01-28T04:38:02.380Z,0.9
2019-01-28T04:39:02.997Z,0.9
2019-01-28T04:40:02.909Z,0.9
2019-01-28T04:41:02.939Z,0.9
2019-01-28T04:42:03.371Z,0.9
2019-01-28T04:43:03.368Z,0.9
2019-01-28T04:44:02.759Z,0.9
2019-01-28T04:45:03.806Z,0.9
2019-01-28T04:46:02.782Z,1
2019-01-28T04:47:03.441Z,1
2019-01-28T04:48:03.191Z,1
2019-01-28T04:49:02.977Z,0.9
2019-01-28T04:50:02.748Z,0.9
2019-01-28T04:51:02.997Z,0.9
2019-01-28T04:52:03.338Z,0.9
2019-01-28T04:53:03.329Z,0.9
2019-01-28T04:54:03.255Z,0.9
2019-01-28T04:55:03.199Z,0.9
2019-01-28T04:56:02.986Z,0.9
2019-01-28T04:57:02.591Z,0.9
2019-01-28T04:58:03.869Z,0.9
2019-01-28T04:59:03.112Z,0.9
2019-01-28T05:00:02.940Z,0.9
2019-01-28T05:01:02.986Z,0.9
2019-01-28T05:02:02.968Z,0.9
2019-01-28T05:03:03.558Z,0.9
2019-01-28T05:04:03.064Z,0.9
2019-01-28T05:05:02.814Z,0.9
2019-01-28T05:06:02.536Z,0.9
2019-01-28T05:07:03.301Z,0.9
2019-01-28T05:08:03.541Z,0.9
2019-01-28T05:09:03.318Z,0.9
2019-01-28T05:10:03.746Z,0.9
2019-01-28T05:11:02.676Z,0.9
2019-01-28T05:12:03.013Z,0.9
2019-01-28T05:13:04.904Z,0.9
2019-01-28T05:14:03.171Z,0.9
2019-01-28T05:15:03.346Z,0.9
2019-01-28T05:16:02.954Z,0.9
2019-01-28T05:17:03.430Z,0.9
2019-01-28T05:18:03.648Z,0.9
2019-01-28T05:19:02.806Z,0.9
2019-01-28T05:20:02.569Z,0.9
2019-01-28T05:21:02.689Z,0.9
2019-01-28T05:22:03.038Z,0.8
2019-01-28T05:23:03.216Z,0.8
2019-01-28T05:24:03.402Z,0.8
2019-01-28T05:25:02.609Z,0.8
2019-01-28T05:26:02.928Z,0.8
2019-01-28T05:27:02.761Z,0.8
2019-01-28T05:28:03.455Z,0.8
2019-01-28T05:29:02.798Z,0.8
2019-01-28T05:30:02.959Z,0.8
2019-01-28T05:31:03.535Z,0.8
2019-01-28T05:32:02.612Z,0.8
2019-01-28T05:33:03.397Z,0.8
2019-01-28T05:34:02.623Z,0.8
2019-01-28T05:35:02.908Z,0.8
2019-01-28T05:36:03.469Z,0.8
2019-01-28T05:37:03.198Z,0.8
2019-01-28T05:38:02.585Z,0.9
2019-01-28T05:39:02.996Z,0.8
2019-01-28T05:40:03.046Z,0.9
2019-01-28T05:41:03.099Z,0.9
2019-01-28T05:42:03.297Z,0.9
2019-01-28T05:43:03.267Z,0.8
2019-01-28T05:44:03.340Z,0.8
2019-01-28T05:45:04.435Z,0.8
2019-01-28T05:47:03.761Z,0.8
2019-01-28T05:47:04.934Z,0.9
2019-01-28T05:48:09.588Z,0.9
2019-01-28T05:49:04.353Z,0.9
2019-01-28T05:50:03.653Z,0.9
2019-01-28T05:51:02.940Z,0.9
2019-01-28T05:52:03.104Z,0.9
2019-01-28T05:53:02.791Z,0.9
2019-01-28T05:54:02.859Z,0.9
2019-01-28T05:55:03.333Z,0.9
2019-01-28T05:56:03.089Z,0.9
2019-01-28T05:57:03.423Z,0.9
2019-01-28T05:58:03.337Z,0.9
2019-01-28T05:59:03.316Z,0.9
2019-01-28T06:00:03.533Z,0.9
2019-01-28T06:01:03.351Z,0.9
2019-01-28T06:02:02.935Z,0.9
2019-01-28T06:03:03.076Z,0.9
2019-01-28T06:04:03.090Z,0.9
2019-01-28T06:05:03.707Z,0.9
2019-01-28T06:06:03.480Z,0.9
2019-01-28T06:07:03.569Z,0.9
2019-01-28T06:08:03.353Z,0.9
2019-01-28T06:09:03.057Z,0.9
2019-01-28T06:10:03.565Z,1
2019-01-28T06:11:02.929Z,1
2019-01-28T06:12:03.599Z,1
2019-01-28T06:13:02.588Z,1
2019-01-28T06:14:02.841Z,1
2019-01-28T06:15:03.270Z,1
2019-01-28T06:16:03.537Z,1
2019-01-28T06:17:03.117Z,1
2019-01-28T06:18:03.439Z,1
2019-01-28T06:19:02.692Z,1
2019-01-28T06:20:03.058Z,1
2019-01-28T06:21:04.563Z,1
2019-01-28T06:22:03.337Z,1
2019-01-28T06:23:02.825Z,0.9
2019-01-28T06:24:03.030Z,1
2019-01-28T06:25:02.758Z,1
2019-01-28T06:26:02.841Z,1
2019-01-28T06:27:03.576Z,0.9
2019-01-28T06:28:02.944Z,0.9
2019-01-28T06:29:02.910Z,0.9
2019-01-28T06:30:03.030Z,0.9
2019-01-28T06:31:03.074Z,0.9
2019-01-28T06:32:03.082Z,0.9
2019-01-28T06:33:02.907Z,0.9
2019-01-28T06:34:03.359Z,0.9
2019-01-28T06:35:02.984Z,0.9
2019-01-28T06:36:02.737Z,0.9
2019-01-28T06:37:02.805Z,0.9
2019-01-28T06:38:03.512Z,0.9
2019-01-28T06:39:03.656Z,0.9
2019-01-28T06:40:02.852Z,0.9
2019-01-28T06:41:02.774Z,0.9
2019-01-28T06:42:02.740Z,0.9
2019-01-28T06:43:03.376Z,1
2019-01-28T06:44:02.907Z,1.1
2019-01-28T06:45:03.496Z,1.1
2019-01-28T06:46:03.586Z,1.1
2019-01-28T06:47:03.242Z,1.1
2019-01-28T06:48:03.237Z,1.1
2019-01-28T06:49:03.046Z,1.1
2019-01-28T06:50:03.475Z,1.1
2019-01-28T06:51:03.424Z,1.1
2019-01-28T06:52:02.774Z,1.1
2019-01-28T06:53:03.414Z,1.1
2019-01-28T06:54:03.010Z,1.1
2019-01-28T06:55:03.618Z,1.1
2019-01-28T06:56:03.221Z,1.1
2019-01-28T06:57:03.925Z,1.1
2019-01-28T06:58:02.639Z,1.1
2019-01-28T06:59:03.384Z,1.2
2019-01-28T07:00:03.677Z,1.1
2019-01-28T07:01:02.836Z,1.1
2019-01-28T07:02:02.621Z,1.1
2019-01-28T07:03:03.157Z,1.1
2019-01-28T07:04:02.918Z,1.1
2019-01-28T07:05:03.512Z,1.1
2019-01-28T07:06:03.631Z,1.1
2019-01-28T07:07:03.035Z,1.1
2019-01-28T07:08:03.239Z,1.1
2019-01-28T07:09:03.024Z,1.1
2019-01-28T07:10:03.242Z,1.1
2019-01-28T07:11:03.393Z,1.1
2019-01-28T07:12:03.338Z,1.1
2019-01-28T07:13:03.102Z,1.1
2019-01-28T07:14:03.305Z,1.1
2019-01-28T07:15:03.019Z,1.1
2019-01-28T07:16:03.324Z,1.1
2019-01-28T07:17:03.479Z,1.1
2019-01-28T07:18:03.138Z,1.1
2019-01-28T07:19:03.175Z,1.1
2019-01-28T07:20:02.721Z,1.1
2019-01-28T07:21:02.409Z,1.1
2019-01-28T07:22:03.168Z,1.2
2019-01-28T07:23:03.237Z,1.2
2019-01-28T07:24:02.356Z,1.2
2019-01-28T07:25:03.420Z,1.2
2019-01-28T07:26:03.137Z,1.2
2019-01-28T07:27:03.418Z,1.2
2019-01-28T07:28:03.048Z,1.2
2019-01-28T07:29:03.362Z,1.2
2019-01-28T07:30:03.457Z,1.3
2019-01-28T07:31:02.889Z,1.3
2019-01-28T07:32:03.337Z,1.3
2019-01-28T07:33:03.174Z,1.2
2019-01-28T07:34:02.618Z,1.3
2019-01-28T07:35:03.552Z,1.3
2019-01-28T07:36:02.787Z,1.3
2019-01-28T07:37:03.632Z,1.2
2019-01-28T07:38:03.714Z,1.3
2019-01-28T07:39:03.530Z,1.3
2019-01-28T07:40:03.469Z,1.2
2019-01-28T07:41:03.420Z,1.2
2019-01-28T07:42:03.195Z,1.3
2019-01-28T07:43:03.142Z,1.3
2019-01-28T07:44:02.922Z,1.2
2019-01-28T07:45:03.431Z,1.3
2019-01-28T07:46:03.624Z,1.3
2019-01-28T07:47:02.871Z,1.3
2019-01-28T07:48:03.392Z,1.3
2019-01-28T07:49:03.254Z,1.3
2019-01-28T07:50:03.229Z,1.3
2019-01-28T07:51:03.260Z,1.3
2019-01-28T07:52:03.555Z,1.3
2019-01-28T07:53:02.919Z,1.3
2019-01-28T07:54:03.504Z,1.3
2019-01-28T07:55:03.609Z,1.3
2019-01-28T07:56:03.187Z,1.3
2019-01-28T07:57:03.059Z,1.3
2019-01-28T07:58:03.052Z,1.3
2019-01-28T07:59:03.530Z,1.3
2019-01-28T08:00:03.420Z,1.3
2019-01-28T08:01:03.419Z,1.3
2019-01-28T08:02:03.301Z,1.3
2019-01-28T08:03:03.370Z,1.3
2019-01-28T08:04:03.348Z,1.3
2019-01-28T08:05:03.251Z,1.3
2019-01-28T08:06:03.294Z,1.3
2019-01-28T08:07:03.663Z,1.4
2019-01-28T08:08:02.630Z,1.4
2019-01-28T08:09:03.462Z,1.4
2019-01-28T08:10:03.775Z,1.4
2019-01-28T08:11:02.643Z,1.4
2019-01-28T08:12:01.717Z,1.4
2019-01-28T08:13:02.629Z,1.5
2019-01-28T08:14:02.810Z,1.5
2019-01-28T08:15:02.890Z,1.5
2019-01-28T08:16:03.155Z,1.5
2019-01-28T08:17:02.842Z,1.5
2019-01-28T08:18:10.242Z,1.5
2019-01-28T08:19:02.927Z,1.5
2019-01-28T08:20:02.919Z,1.5
2019-01-28T08:21:03.427Z,1.6
2019-01-28T08:22:02.455Z,1.5
2019-01-28T08:23:03.332Z,1.6
2019-01-28T08:24:03.662Z,1.5
2019-01-28T08:25:03.141Z,1.6
2019-01-28T08:26:03.147Z,1.6
2019-01-28T08:27:02.942Z,1.6
2019-01-28T08:28:02.875Z,1.6
2019-01-28T08:29:03.492Z,1.6
2019-01-28T08:30:03.000Z,1.6
2019-01-28T08:31:02.555Z,1.6
2019-01-28T08:32:03.079Z,1.6
2019-01-28T08:33:03.135Z,1.6
2019-01-28T08:34:03.113Z,1.6
2019-01-28T08:35:02.976Z,1.6
2019-01-28T08:36:02.631Z,1.6
2019-01-28T08:37:03.143Z,1.6
2019-01-28T08:38:03.257Z,1.6
2019-01-28T08:39:02.785Z,1.7
2019-01-28T08:40:03.057Z,1.7
2019-01-28T08:41:02.926Z,1.8
2019-01-28T08:42:03.000Z,1.8
2019-01-28T08:43:03.004Z,1.8
2019-01-28T08:44:03.442Z,1.8
2019-01-28T08:45:02.721Z,1.8
2019-01-28T08:46:02.924Z,1.8
2019-01-28T08:47:03.053Z,1.9
2019-01-28T08:48:02.886Z,1.9
2019-01-28T08:49:03.020Z,1.9
2019-01-28T08:50:02.982Z,1.9
2019-01-28T08:51:02.770Z,1.9
2019-01-28T08:52:02.809Z,2
2019-01-28T08:53:02.989Z,2
2019-01-28T08:54:02.980Z,1.9
2019-01-28T08:55:03.259Z,1.9
2019-01-28T08:56:03.275Z,1.9
2019-01-28T08:57:03.347Z,1.9
2019-01-28T08:58:03.136Z,1.9
2019-01-28T08:59:02.729Z,1.9
2019-01-28T09:00:02.964Z,1.9
2019-01-28T09:01:02.994Z,1.9
2019-01-28T09:02:04.039Z,2
2019-01-28T09:03:03.117Z,1.9
2019-01-28T09:04:03.150Z,1.9
2019-01-28T09:05:02.565Z,1.9
2019-01-28T09:06:03.528Z,1.9
2019-01-28T09:07:02.923Z,2
2019-01-28T09:08:03.126Z,1.9
2019-01-28T09:09:03.329Z,2
2019-01-28T09:10:03.317Z,2
2019-01-28T09:11:03.212Z,2
2019-01-28T09:12:02.750Z,2
2019-01-28T09:13:03.386Z,2
2019-01-28T09:14:02.997Z,2
2019-01-28T09:15:03.696Z,2
2019-01-28T09:16:03.501Z,2.1
2019-01-28T09:17:03.110Z,2.1
2019-01-28T09:18:03.404Z,2.1
2019-01-28T09:19:03.105Z,2.1
2019-01-28T09:20:02.854Z,2.1
2019-01-28T09:21:02.977Z,2.1
2019-01-28T09:22:03.053Z,2.1
2019-01-28T09:23:02.652Z,2.1
2019-01-28T09:24:02.977Z,2.1
2019-01-28T09:25:03.049Z,2.1
2019-01-28T09:26:03.054Z,2.1
2019-01-28T09:27:02.978Z,2.1
2019-01-28T09:28:03.358Z,2.1
2019-01-28T09:29:03.339Z,2.1
2019-01-28T09:30:03.178Z,2.1
2019-01-28T09:31:03.459Z,2.1
2019-01-28T09:32:03.066Z,2.2
2019-01-28T09:33:03.462Z,2.1
2019-01-28T09:34:02.864Z,2.1
2019-01-28T09:35:03.189Z,2.1
2019-01-28T09:36:02.942Z,2.2
2019-01-28T09:37:03.287Z,2.2
2019-01-28T09:38:03.268Z,2.2
2019-01-28T09:39:03.255Z,2.2
2019-01-28T09:40:04.161Z,2.2
2019-01-28T09:41:02.405Z,2.2
2019-01-28T09:42:03.402Z,2.3
2019-01-28T09:43:03.591Z,2.2
2019-01-28T09:44:02.838Z,2.3
2019-01-28T09:45:03.157Z,2.3
2019-01-28T09:46:03.013Z,2.3
2019-01-28T09:47:03.647Z,2.3
2019-01-28T09:48:02.994Z,2.4
2019-01-28T09:49:03.547Z,2.3
2019-01-28T09:50:03.131Z,2.3
2019-01-28T09:51:02.921Z,2.4
2019-01-28T09:52:03.367Z,2.4
2019-01-28T09:53:03.611Z,2.4
2019-01-28T09:54:02.695Z,2.4
2019-01-28T09:55:03.376Z,2.4
2019-01-28T09:56:03.184Z,2.4
2019-01-28T09:57:03.326Z,2.4
2019-01-28T09:58:02.643Z,2.4
2019-01-28T09:59:03.245Z,2.5
2019-01-28T10:00:03.325Z,2.5
2019-01-28T10:01:03.032Z,2.5
2019-01-28T10:02:03.463Z,2.5
2019-01-28T10:03:03.186Z,2.6
2019-01-28T10:04:03.337Z,2.6
2019-01-28T10:05:03.331Z,2.6
2019-01-28T10:06:02.878Z,2.6
2019-01-28T10:07:03.688Z,2.6
2019-01-28T10:08:03.670Z,2.6
2019-01-28T10:09:03.675Z,2.7
2019-01-28T10:10:03.481Z,2.7
2019-01-28T10:11:02.994Z,2.7
2019-01-28T10:12:03.100Z,2.7
2019-01-28T10:13:02.655Z,2.8
2019-01-28T10:14:02.803Z,2.8
2019-01-28T10:15:03.589Z,2.8
2019-01-28T10:16:02.713Z,2.8
2019-01-28T10:17:02.915Z,2.8
2019-01-28T10:18:02.819Z,2.8
2019-01-28T10:19:03.179Z,2.8
2019-01-28T10:20:03.380Z,2.8
2019-01-28T10:21:02.648Z,2.8
2019-01-28T10:22:02.930Z,2.8
2019-01-28T10:23:03.279Z,2.8
2019-01-28T10:24:02.750Z,2.9
2019-01-28T10:25:03.535Z,2.9
2019-01-28T10:26:03.357Z,2.9
2019-01-28T10:27:02.609Z,2.9
2019-01-28T10:28:03.483Z,2.9
2019-01-28T10:29:03.568Z,2.9
2019-01-28T10:30:03.696Z,2.9
2019-01-28T10:31:02.457Z,2.9
2019-01-28T10:32:02.972Z,2.8
2019-01-28T10:33:03.039Z,2.8
2019-01-28T10:34:03.361Z,2.7
2019-01-28T10:35:03.841Z,2.9
2019-01-28T10:36:02.894Z,2.9
2019-01-28T10:37:04.294Z,3.2
2019-01-28T10:38:05.327Z,3.1
2019-01-28T10:39:03.470Z,3.1
2019-01-28T10:40:02.939Z,3.1
2019-01-28T10:41:03.617Z,3.1
2019-01-28T10:42:03.658Z,3.1
2019-01-28T10:43:02.637Z,3.1
2019-01-28T10:44:10.010Z,3.1
2019-01-28T10:45:02.911Z,3.3
2019-01-28T10:46:02.771Z,3.4
2019-01-28T10:47:03.165Z,3.3
2019-01-28T10:48:03.181Z,3.3
2019-01-28T10:49:02.725Z,3.3
2019-01-28T10:50:03.074Z,3.3
2019-01-28T10:51:02.612Z,3.3
2019-01-28T10:52:03.557Z,3.3
2019-01-28T10:53:03.511Z,3.3
2019-01-28T10:54:03.519Z,3.3
2019-01-28T10:55:02.770Z,3.2
2019-01-28T10:56:03.216Z,3.2
2019-01-28T10:57:03.214Z,3.1
2019-01-28T10:58:03.366Z,3.1
2019-01-28T10:59:02.890Z,3.1
2019-01-28T11:00:03.312Z,3.1
2019-01-28T11:01:03.287Z,3
2019-01-28T11:02:02.931Z,3
2019-01-28T11:03:02.746Z,3
2019-01-28T11:04:02.854Z,3
2019-01-28T11:05:03.631Z,2.9
2019-01-28T11:06:03.085Z,2.9
2019-01-28T11:07:03.117Z,2.9
2019-01-28T11:08:03.458Z,2.9
2019-01-28T11:09:03.410Z,3
2019-01-28T11:10:03.397Z,3.1
2019-01-28T11:11:03.618Z,3
2019-01-28T11:12:03.303Z,3.1
2019-01-28T11:13:02.777Z,3.1
2019-01-28T11:14:02.833Z,3.1
2019-01-28T11:15:03.144Z,3.1
2019-01-28T11:16:03.149Z,3.1
2019-01-28T11:17:02.537Z,3
2019-01-28T11:18:02.505Z,3
2019-01-28T11:19:03.551Z,3
2019-01-28T11:20:03.563Z,3
2019-01-28T11:21:02.821Z,2.9
2019-01-28T11:22:03.696Z,3
2019-01-28T11:23:02.705Z,3
2019-01-28T11:24:03.800Z,3.1
2019-01-28T11:25:03.565Z,3.1
2019-01-28T11:26:03.250Z,3.1
2019-01-28T11:27:03.086Z,3.1
2019-01-28T11:28:03.191Z,3.1
2019-01-28T11:29:02.629Z,3.1
2019-01-28T11:30:01.988Z,3
2019-01-28T11:31:02.788Z,2.9
2019-01-28T11:32:03.481Z,2.9
2019-01-28T11:33:03.244Z,2.9
2019-01-28T11:34:02.819Z,2.9
2019-01-28T11:35:02.860Z,2.9
2019-01-28T11:36:05.228Z,2.9
2019-01-28T11:37:03.808Z,2.9
2019-01-28T11:38:03.262Z,2.9
2019-01-28T11:39:03.227Z,2.9
2019-01-28T11:40:03.259Z,2.9
2019-01-28T11:41:03.647Z,2.9
2019-01-28T11:42:03.514Z,2.9
2019-01-28T11:43:03.579Z,2.9
2019-01-28T11:44:02.913Z,2.8
2019-01-28T11:45:02.775Z,2.8
2019-01-28T11:46:03.102Z,2.8
2019-01-28T11:47:02.804Z,2.8
2019-01-28T11:48:02.905Z,2.8
2019-01-28T11:49:05.872Z,2.8
2019-01-28T11:50:03.680Z,2.8
2019-01-28T11:51:03.021Z,2.9
2019-01-28T11:52:02.882Z,2.9
2019-01-28T11:53:03.687Z,2.9
2019-01-28T11:54:03.523Z,2.9
2019-01-28T11:55:03.358Z,2.9
2019-01-28T11:56:02.987Z,2.9
2019-01-28T11:57:03.388Z,2.9
2019-01-28T11:58:02.671Z,2.9
2019-01-28T11:59:02.387Z,2.9
2019-01-28T12:00:03.389Z,2.9
2019-01-28T12:01:02.779Z,2.9
2019-01-28T12:02:02.959Z,2.9
2019-01-28T12:03:03.044Z,2.9
2019-01-28T12:04:02.919Z,2.9
2019-01-28T12:05:03.728Z,2.9
2019-01-28T12:06:03.372Z,2.9
2019-01-28T12:07:03.087Z,2.9
2019-01-28T12:08:02.735Z,2.9
2019-01-28T12:09:03.445Z,2.9
2019-01-28T12:10:03.719Z,2.9
2019-01-28T12:11:02.875Z,2.9
2019-01-28T12:12:02.958Z,2.9
2019-01-28T12:13:03.425Z,2.9
2019-01-28T12:14:03.020Z,3
2019-01-28T12:15:02.905Z,3
2019-01-28T12:16:03.526Z,3
2019-01-28T12:17:03.344Z,3
2019-01-28T12:18:02.967Z,3
2019-01-28T12:19:03.294Z,3
2019-01-28T12:20:03.635Z,3.1
2019-01-28T12:21:03.058Z,3.1
2019-01-28T12:22:02.825Z,3.1
2019-01-28T12:23:02.981Z,3.1
2019-01-28T12:24:02.805Z,3.2
2019-01-28T12:25:03.392Z,3.3
2019-01-28T12:26:03.602Z,3.5
2019-01-28T12:27:03.618Z,3.4
2019-01-28T12:28:02.869Z,3.4
2019-01-28T12:29:03.744Z,3.4
2019-01-28T12:30:03.028Z,3.4
2019-01-28T12:31:03.518Z,3.4
2019-01-28T12:32:02.985Z,3.3
2019-01-28T12:33:03.352Z,3.3
2019-01-28T12:34:03.017Z,3.3
2019-01-28T12:35:03.005Z,3.3
2019-01-28T12:36:02.997Z,3.3
2019-01-28T12:37:02.742Z,3.3
2019-01-28T12:38:02.964Z,3.3
2019-01-28T12:39:03.425Z,3.3
2019-01-28T12:40:02.715Z,3.3
2019-01-28T12:41:03.387Z,3.3
2019-01-28T12:42:02.987Z,3.3
2019-01-28T12:43:03.240Z,3.3
2019-01-28T12:44:03.307Z,3.3
2019-01-28T12:45:03.374Z,3.3
2019-01-28T12:46:03.678Z,3.3
2019-01-28T12:47:03.313Z,3.3
2019-01-28T12:48:03.246Z,3.3
2019-01-28T12:49:03.588Z,3.2
2019-01-28T12:50:02.921Z,3.2
2019-01-28T12:51:02.897Z,3.2
2019-01-28T12:52:03.043Z,3.2
2019-01-28T12:53:03.618Z,3.1
2019-01-28T12:54:02.883Z,3.1
2019-01-28T12:55:02.716Z,3.1
2019-01-28T12:56:03.174Z,3.1
2019-01-28T12:57:03.012Z,3.1
2019-01-28T12:58:03.434Z,3
2019-01-28T12:59:08.907Z,3
2019-01-28T13:00:03.314Z,3
2019-01-28T13:01:03.314Z,3
2019-01-28T13:02:02.700Z,3
2019-01-28T13:03:03.133Z,3
2019-01-28T13:04:03.311Z,3
2019-01-28T13:05:03.078Z,3
2019-01-28T13:06:03.090Z,3
2019-01-28T13:07:02.866Z,3
2019-01-28T13:08:02.825Z,2.9
2019-01-28T13:09:03.789Z,2.9
2019-01-28T13:10:02.686Z,2.9
2019-01-28T13:11:02.843Z,3
2019-01-28T13:12:03.193Z,3
2019-01-28T13:13:03.204Z,3
2019-01-28T13:14:03.128Z,2.9
2019-01-28T13:15:03.675Z,3
2019-01-28T13:16:02.839Z,3
2019-01-28T13:17:03.454Z,3.1
2019-01-28T13:18:03.569Z,3.1
2019-01-28T13:19:03.203Z,3.1
2019-01-28T13:20:03.613Z,3.2
2019-01-28T13:21:02.684Z,3.3
2019-01-28T13:22:03.092Z,3.2
2019-01-28T13:23:03.392Z,3.2
2019-01-28T13:24:02.524Z,3.3
2019-01-28T13:25:03.243Z,3.3
2019-01-28T13:26:02.789Z,3.2
2019-01-28T13:27:02.928Z,3.2
2019-01-28T13:28:02.821Z,3.2
2019-01-28T13:29:02.703Z,3.3
2019-01-28T13:30:03.123Z,3.2
2019-01-28T13:31:03.108Z,3.2
2019-01-28T13:32:02.916Z,3.2
2019-01-28T13:33:02.860Z,3.2
2019-01-28T13:34:02.829Z,3.2
2019-01-28T13:35:03.628Z,3.2
2019-01-28T13:36:03.229Z,3.1
2019-01-28T13:37:03.158Z,3.1
2019-01-28T13:38:03.514Z,3.1
2019-01-28T13:39:03.277Z,3.1
2019-01-28T13:40:03.035Z,3.1
2019-01-28T13:41:03.187Z,3.1
2019-01-28T13:42:02.675Z,3.1
2019-01-28T13:43:03.429Z,3.1
2019-01-28T13:44:02.363Z,3.1
2019-01-28T13:45:02.910Z,3.1
2019-01-28T13:46:03.488Z,3
2019-01-28T13:47:03.146Z,3
2019-01-28T13:48:02.506Z,3
2019-01-28T13:49:02.835Z,3
2019-01-28T13:50:03.650Z,3
2019-01-28T13:51:02.939Z,2.9
2019-01-28T13:52:03.322Z,2.9